createdAt,value
2022-12-17T00:03:03.123Z,92.55
2022-12-17T00:08:23.898Z,92.40
2022-12-17T00:13:44.437Z,92.55
2022-12-17T00:19:04.955Z,92.74
2022-12-17T00:24:25.358Z,92.71
2022-12-17T00:29:45.932Z,92.56
2022-12-17T00:35:06.713Z,91.87
2022-12-17T00:40:28.181Z,92.24
2022-12-17T00:45:48.752Z,92.18
2022-12-17T00:51:09.424Z,92.25
2022-12-17T00:56:30.374Z,92.23
2022-12-17T01:01:51.184Z,92.35
2022-12-17T01:07:12.643Z,92.05
2022-12-17T01:12:33.234Z,91.36
2022-12-17T01:17:53.736Z,91.31
2022-12-17T01:23:16.863Z,91.80
2022-12-17T01:28:43.078Z,91.60
2022-12-17T01:34:03.559Z,91.64
2022-12-17T01:39:24.115Z,91.33
2022-12-17T01:45:03.228Z,91.25
2022-12-17T01:50:24.205Z,91.11
2022-12-17T01:55:44.778Z,91.38
2022-12-17T02:01:05.568Z,92.05
2022-12-17T02:06:45.527Z,92.24
2022-12-17T02:12:31.970Z,92.44
2022-12-17T02:18:00.500Z,92.35
2022-12-17T02:23:47.145Z,92.20
2022-12-17T02:29:10.806Z,91.56
2022-12-17T02:34:31.434Z,92.05
2022-12-17T02:39:52.205Z,92.07
2022-12-17T02:45:17.507Z,92.13
2022-12-17T02:50:38.134Z,92.03
2022-12-17T02:55:58.730Z,91.89
2022-12-17T03:01:21.030Z,91.88
2022-12-17T03:06:41.750Z,92.08
2022-12-17T03:12:02.406Z,92.55
2022-12-17T03:17:22.898Z,92.75
2022-12-17T03:22:43.332Z,92.98
2022-12-17T03:28:03.880Z,93.23
2022-12-17T03:33:27.400Z,93.28
2022-12-17T03:38:47.930Z,93.20
2022-12-17T03:44:08.420Z,93.05
2022-12-17T03:49:48.756Z,92.87
2022-12-17T03:55:09.057Z,91.81
2022-12-17T04:00:30.312Z,91.88
2022-12-17T04:05:50.688Z,91.96
2022-12-17T04:11:11.259Z,91.19
2022-12-17T04:16:31.652Z,91.49
2022-12-17T04:21:52.136Z,91.33
2022-12-17T04:27:12.601Z,90.28
2022-12-17T04:32:35.369Z,88.76
2022-12-17T04:37:56.354Z,89.53
2022-12-17T04:43:25.014Z,89.20
2022-12-17T04:48:45.591Z,88.76
2022-12-17T04:54:06.236Z,90.29
2022-12-17T04:59:26.774Z,90.17
2022-12-17T05:04:47.491Z,89.57
2022-12-17T05:10:07.950Z,88.72
2022-12-17T05:15:28.532Z,89.79
2022-12-17T05:20:49.089Z,90.01
2022-12-17T05:26:21.842Z,88.71
2022-12-17T05:31:42.251Z,89.20
2022-12-17T05:37:02.626Z,89.03
2022-12-17T05:42:23.128Z,89.48
2022-12-17T05:47:43.838Z,89.33
2022-12-17T05:53:04.402Z,89.01
2022-12-17T05:58:28.868Z,89.00
2022-12-17T06:03:49.631Z,89.49
2022-12-17T06:09:10.441Z,89.40
2022-12-17T06:14:31.031Z,89.80
2022-12-17T06:19:51.403Z,89.26
2022-12-17T06:25:11.915Z,89.25
2022-12-17T06:30:32.580Z,87.73
2022-12-17T06:35:53.002Z,88.41
2022-12-17T06:41:13.471Z,88.59
2022-12-17T06:46:34.242Z,88.94
2022-12-17T06:51:54.887Z,88.46
2022-12-17T06:57:15.581Z,88.56
2022-12-17T07:02:49.881Z,87.93
2022-12-17T07:08:18.272Z,87.47
2022-12-17T07:13:39.233Z,88.00
2022-12-17T07:19:01.076Z,87.06
2022-12-17T07:24:21.744Z,87.73
2022-12-17T07:29:42.244Z,87.43
2022-12-17T07:35:02.908Z,87.56
2022-12-17T07:40:23.924Z,87.37
2022-12-17T07:45:45.082Z,87.36
2022-12-17T07:51:09.718Z,88.72
2022-12-17T07:56:30.155Z,87.87
2022-12-17T08:01:50.908Z,85.64
2022-12-17T08:07:14.151Z,85.71
2022-12-17T08:12:35.205Z,85.87
2022-12-17T08:17:55.702Z,86.25
2022-12-17T08:23:21.491Z,86.43
2022-12-17T08:28:52.604Z,86.11
2022-12-17T08:34:13.327Z,85.69
2022-12-17T08:39:33.715Z,86.68
2022-12-17T08:44:54.185Z,86.95
2022-12-17T08:50:14.780Z,86.80
2022-12-17T08:55:35.306Z,86.50
2022-12-17T09:00:55.997Z,87.01
2022-12-17T09:06:18.027Z,86.79
2022-12-17T09:11:38.662Z,86.56
2022-12-17T09:16:59.203Z,86.74
2022-12-17T09:22:20.028Z,87.04
2022-12-17T09:27:40.651Z,86.66
2022-12-17T09:33:01.162Z,86.18
2022-12-17T09:38:21.796Z,84.74
2022-12-17T09:43:59.269Z,84.36
2022-12-17T09:49:23.862Z,85.28
2022-12-17T09:54:48.363Z,84.11
2022-12-17T10:00:08.679Z,84.43
2022-12-17T10:05:39.464Z,84.22
2022-12-17T10:11:03.941Z,84.73
2022-12-17T10:17:11.692Z,83.86
2022-12-17T10:22:37.929Z,85.81
2022-12-17T10:28:00.188Z,85.55
2022-12-17T10:33:25.756Z,85.01
2022-12-17T10:38:48.896Z,85.42
2022-12-17T10:44:09.694Z,84.99
2022-12-17T10:49:36.194Z,85.68
2022-12-17T10:54:57.009Z,85.91
2022-12-17T11:00:18.041Z,85.38
2022-12-17T11:05:48.420Z,86.18
2022-12-17T11:11:09.657Z,85.78
2022-12-17T11:16:46.008Z,84.81
2022-12-17T11:22:10.518Z,84.29
2022-12-17T11:27:37.192Z,84.99
2022-12-17T11:33:17.548Z,85.49
2022-12-17T11:38:41.011Z,84.55
2022-12-17T11:44:01.614Z,84.51
2022-12-17T11:49:32.158Z,85.38
2022-12-17T11:55:18.130Z,82.80
2022-12-17T12:00:41.841Z,82.06
2022-12-17T12:06:13.728Z,81.41
2022-12-17T12:12:05.220Z,83.55
2022-12-17T12:17:56.915Z,83.10
2022-12-17T12:23:42.778Z,83.89
2022-12-17T12:29:29.645Z,83.48
2022-12-17T12:34:55.454Z,83.54
2022-12-17T12:40:40.143Z,84.22
2022-12-17T12:46:08.839Z,84.85
2022-12-17T12:51:37.955Z,83.98
2022-12-17T12:56:58.224Z,84.31
2022-12-17T13:02:18.950Z,84.67
2022-12-17T13:07:30.905Z,83.70
2022-12-17T13:12:42.286Z,83.55
2022-12-17T13:18:00.239Z,83.36
2022-12-17T13:23:29.161Z,83.53
2022-12-17T13:28:40.166Z,82.97
2022-12-17T13:34:00.624Z,81.79
2022-12-17T13:39:15.020Z,81.52
2022-12-17T13:44:30.618Z,82.99
2022-12-17T13:49:32.740Z,81.62
2022-12-17T13:54:34.826Z,83.11
2022-12-17T13:59:36.712Z,83.02
2022-12-17T14:04:38.680Z,84.40
2022-12-17T14:09:44.026Z,84.03
2022-12-17T14:14:52.727Z,85.19
2022-12-17T14:20:02.802Z,85.11
2022-12-17T14:25:13.340Z,86.05
2022-12-17T14:30:24.915Z,85.83
2022-12-17T14:35:30.413Z,86.27
2022-12-17T14:40:32.318Z,86.79
2022-12-17T14:45:54.173Z,86.64
2022-12-17T14:50:56.511Z,86.72
2022-12-17T14:55:59.356Z,87.00
2022-12-17T15:01:09.094Z,87.56
2022-12-17T15:06:16.575Z,87.67
2022-12-17T15:11:21.947Z,87.05
2022-12-17T15:16:24.332Z,86.83
2022-12-17T15:21:27.100Z,87.20
2022-12-17T15:26:28.918Z,87.44
2022-12-17T15:31:35.255Z,86.66
2022-12-17T15:36:37.725Z,86.76
2022-12-17T15:41:58.326Z,86.95
2022-12-17T15:47:00.180Z,87.07
2022-12-17T15:52:02.029Z,86.73
2022-12-17T15:57:04.024Z,87.32
2022-12-17T16:02:06.702Z,86.17
2022-12-17T16:07:08.941Z,84.79
2022-12-17T16:12:10.659Z,85.48
2022-12-17T16:17:13.169Z,86.68
2022-12-17T16:22:14.924Z,86.47
2022-12-17T16:27:18.198Z,86.36
2022-12-17T16:32:20.050Z,86.09
2022-12-17T16:37:21.830Z,85.95
2022-12-17T16:42:23.620Z,86.00
2022-12-17T16:47:26.700Z,86.23
2022-12-17T16:52:28.536Z,86.15
2022-12-17T16:57:30.363Z,85.35
2022-12-17T17:02:32.638Z,84.56
2022-12-17T17:07:34.672Z,85.29
2022-12-17T17:12:36.580Z,84.44
2022-12-17T17:17:54.158Z,84.51
2022-12-17T17:22:57.934Z,84.78
2022-12-17T17:27:59.694Z,86.02
2022-12-17T17:33:01.460Z,86.75
2022-12-17T17:38:03.289Z,86.21
2022-12-17T17:43:05.079Z,85.51
2022-12-17T17:48:07.056Z,86.41
2022-12-17T17:53:08.912Z,86.25
2022-12-17T17:58:10.731Z,86.83
2022-12-17T18:03:12.650Z,86.75
2022-12-17T18:08:14.513Z,86.21
2022-12-17T18:13:35.092Z,86.11
2022-12-17T18:18:38.348Z,86.16
2022-12-17T18:23:41.104Z,86.80
2022-12-17T18:28:44.444Z,86.64
2022-12-17T18:33:48.923Z,85.69
2022-12-17T18:38:58.666Z,83.81
2022-12-17T18:44:03.623Z,84.25
2022-12-17T18:49:09.187Z,84.54
2022-12-17T18:54:19.363Z,85.18
2022-12-17T18:59:28.543Z,84.76
2022-12-17T19:04:33.046Z,85.19
2022-12-17T19:09:35.809Z,85.07
2022-12-17T19:14:37.825Z,86.03
2022-12-17T19:19:39.564Z,85.44
2022-12-17T19:24:41.330Z,86.58
2022-12-17T19:29:48.960Z,86.27
2022-12-17T19:34:51.632Z,86.43
2022-12-17T19:39:53.829Z,86.56
2022-12-17T19:44:56.960Z,87.03
2022-12-17T19:49:59.109Z,87.39
2022-12-17T19:55:01.987Z,87.34
2022-12-17T20:00:04.227Z,88.17
2022-12-17T20:05:14.657Z,88.17
2022-12-17T20:10:16.511Z,88.23
2022-12-17T20:15:18.396Z,88.24
2022-12-17T20:20:20.189Z,88.06
2022-12-17T20:25:21.984Z,87.65
2022-12-17T20:30:23.803Z,88.41
2022-12-17T20:35:27.077Z,88.26
2022-12-17T20:40:28.931Z,87.79
2022-12-17T20:45:30.873Z,87.59
2022-12-17T20:50:32.820Z,87.15
2022-12-17T20:55:34.753Z,87.64
2022-12-17T21:00:36.806Z,87.91
2022-12-17T21:05:40.218Z,88.17
2022-12-17T21:10:42.000Z,88.02
2022-12-17T21:15:49.654Z,87.36
2022-12-17T21:21:02.698Z,86.34
2022-12-17T21:26:13.752Z,87.38
2022-12-17T21:31:17.188Z,87.74
2022-12-17T21:36:21.403Z,87.95
2022-12-17T21:41:27.245Z,87.97
2022-12-17T21:46:29.733Z,87.75
2022-12-17T21:51:32.373Z,87.88
2022-12-17T21:56:34.352Z,88.33
2022-12-17T22:01:36.604Z,87.96
2022-12-17T22:06:43.436Z,87.46
2022-12-17T22:12:15.031Z,87.52
2022-12-17T22:17:16.934Z,87.87
2022-12-17T22:22:18.742Z,86.52
2022-12-17T22:27:20.541Z,87.39
2022-12-17T22:32:43.277Z,86.47
2022-12-17T22:40:31.288Z,86.35
2022-12-17T22:44:43.582Z,86.34
2022-12-17T22:48:50.898Z,86.23
2022-12-17T22:53:53.679Z,86.57
2022-12-17T22:58:56.835Z,85.01
2022-12-17T23:04:00.344Z,85.37
2022-12-17T23:09:02.154Z,85.92
2022-12-17T23:14:06.059Z,85.85
2022-12-17T23:19:08.428Z,86.07
2022-12-17T23:24:10.561Z,86.68
2022-12-17T23:29:19.093Z,86.38
2022-12-17T23:34:21.452Z,85.92
2022-12-17T23:39:23.389Z,85.92
2022-12-17T23:44:25.302Z,87.05
2022-12-17T23:49:27.169Z,87.19
2022-12-17T23:54:29.079Z,86.44
2022-12-17T23:59:31.028Z,87.57
